Logan, Iowa
Current Conditions -  °F | °C
As of 5:54 AM on Sunday 21 Dec 2014 (Local Time) from KTQE Reporting Station
Haze Haze  
Wind Chill: 29°   Ceiling: 600
Heat Index: 38°   Visibility: 6mi
Dew Point: 36°   Wind: 15mph
Humidity: 93%   Direction: 180°S
Pressure: 29.88"   Gusts: NA
Location:  41.64°N, 95.79°W
Report Text: KTQE 211154Z AUTO 18013KT 6SM BR OVC006 03/02 A2988 RMK AO2 SLP123 T00330022 10033 20011 56019
Loading
Personal Weather Stations






























Interactive Weather Map New forecast layout! Learn more

10-Day Weather Forecast

Advertisements
Track Severe Weather on mobile